Time;durP1;ratioP1;P1;durP2;ratioP2;P2;SDS_P1;SDS_P2;PMS_P1;PMS_P2;Temp;Humidity;BMP_temperature;BMP_pressure;BME280_temperature;BME280_humidity;BME280_pressure;Samples;Min_cycle;Max_cycle;Signal;HPM_P1;HPM_P2
2021/04/27 00:02:17;;;;;;;10.57;6.13;;;10.30;50.60;;;;;;5040493;28;20298;-84
2021/04/27 00:04:44;;;;;;;8.23;5.90;;;10.40;50.60;;;;;;5046175;28;20033;-84
2021/04/27 00:07:09;;;;;;;12.07;6.43;;;10.50;50.40;;;;;;5041005;28;20048;-84
2021/04/27 00:09:35;;;;;;;11.23;6.07;;;10.50;50.10;;;;;;5057601;28;20385;-84
2021/04/27 00:12:01;;;;;;;11.10;6.40;;;10.60;50.00;;;;;;5040507;28;20063;-84
2021/04/27 00:14:27;;;;;;;12.13;5.90;;;10.70;49.80;;;;;;5040800;28;20527;-84
2021/04/27 00:16:53;;;;;;;11.87;5.90;;;10.70;49.50;;;;;;5040416;28;20033;-85
2021/04/27 00:19:19;;;;;;;8.33;5.40;;;10.70;49.30;;;;;;5038066;28;20131;-84
2021/04/27 00:21:45;;;;;;;10.20;4.73;;;10.80;49.20;;;;;;5040326;28;20025;-85
2021/04/27 00:24:10;;;;;;;8.87;5.43;;;10.80;49.10;;;;;;5036120;28;20489;-84
2021/04/27 00:26:36;;;;;;;6.67;5.43;;;10.80;49.10;;;;;;5041074;28;20024;-84
2021/04/27 00:29:04;;;;;;;7.80;4.97;;;10.70;48.90;;;;;;5054108;28;20028;-84
2021/04/27 00:31:29;;;;;;;10.47;4.77;;;10.70;48.90;;;;;;5036670;28;20431;-84
2021/04/27 00:33:56;;;;;;;9.77;5.73;;;10.70;48.90;;;;;;5039866;28;20051;-84
2021/04/27 00:36:22;;;;;;;12.77;5.33;;;10.70;48.90;;;;;;5040938;28;20112;-84
2021/04/27 00:38:48;;;;;;;7.33;5.17;;;10.70;48.80;;;;;;5057559;28;20461;-84
2021/04/27 00:41:14;;;;;;;9.23;4.97;;;10.70;48.80;;;;;;5032654;28;20047;-84
2021/04/27 00:43:40;;;;;;;7.83;5.13;;;10.70;48.90;;;;;;5035921;28;20070;-84
2021/04/27 00:46:07;;;;;;;10.90;5.60;;;10.60;49.00;;;;;;5046073;28;20496;-84
2021/04/27 00:48:33;;;;;;;10.33;6.40;;;10.60;49.10;;;;;;5040456;28;20017;-84
2021/04/27 00:50:59;;;;;;;11.33;6.20;;;10.60;49.20;;;;;;5035174;28;20028;-84
2021/04/27 00:53:26;;;;;;;13.87;6.60;;;10.60;49.30;;;;;;5040805;28;20024;-84
2021/04/27 00:55:53;;;;;;;11.47;6.00;;;10.60;49.40;;;;;;5039215;28;20048;-84
2021/04/27 00:58:20;;;;;;;10.47;6.50;;;10.50;49.70;;;;;;5040841;28;20053;-84
2021/04/27 01:00:46;;;;;;;9.77;6.07;;;10.40;50.20;;;;;;5039502;28;20027;-84
2021/04/27 01:03:12;;;;;;;12.20;6.83;;;10.30;50.50;;;;;;5040556;28;20028;-84
2021/04/27 01:05:39;;;;;;;13.80;6.23;;;10.30;50.70;;;;;;5058922;28;20021;-83
2021/04/27 01:08:16;;;;;;;9.10;6.50;;;10.30;50.70;;;;;;5040384;28;20059;-84
2021/04/27 01:11:03;;;;;;;9.40;6.33;;;10.40;50.80;;;;;;5038808;28;20033;-84
2021/04/27 01:13:32;;;;;;;8.53;6.53;;;10.30;51.00;;;;;;5037352;28;20032;-86
2021/04/27 01:16:00;;;;;;;9.13;7.07;;;10.20;51.40;;;;;;5036854;28;20380;-86
2021/04/27 01:18:26;;;;;;;13.87;6.60;;;10.20;51.50;;;;;;5037707;28;20035;-85
2021/04/27 01:20:53;;;;;;;10.07;6.63;;;10.10;51.50;;;;;;5036905;28;20079;-85
2021/04/27 01:23:19;;;;;;;15.20;9.03;;;10.00;51.60;;;;;;5032337;28;20033;-85
2021/04/27 01:26:12;;;;;;;18.73;10.30;;;9.90;51.70;;;;;;5035358;28;20519;-86
2021/04/27 01:28:38;;;;;;;13.57;8.75;;;9.90;52.00;;;;;;5036302;28;20108;-84
2021/04/27 01:31:05;;;;;;;15.90;9.07;;;9.80;51.80;;;;;;5021152;28;20037;-85
2021/04/27 01:33:32;;;;;;;12.53;7.17;;;9.80;52.00;;;;;;5035753;28;20098;-84
2021/04/27 01:36:00;;;;;;;12.50;7.17;;;9.70;52.10;;;;;;5036790;28;20074;-85
2021/04/27 01:38:28;;;;;;;15.30;7.07;;;9.60;52.30;;;;;;5039815;28;20112;-85
2021/04/27 01:40:55;;;;;;;15.47;6.70;;;9.50;53.10;;;;;;5026913;28;20028;-84
2021/04/27 01:43:23;;;;;;;10.70;5.80;;;9.50;52.70;;;;;;5054700;28;20493;-84
2021/04/27 01:45:52;;;;;;;36.00;19.57;;;9.50;52.70;;;;;;5022508;28;20021;-85
2021/04/27 01:48:20;;;;;;;19.60;11.50;;;9.50;52.70;;;;;;5047530;28;20032;-85
2021/04/27 01:50:47;;;;;;;10.20;7.50;;;9.60;52.40;;;;;;5054239;28;20021;-84
2021/04/27 01:53:14;;;;;;;12.07;7.50;;;9.70;52.10;;;;;;5030996;28;20545;-85
2021/04/27 01:55:41;;;;;;;12.43;6.67;;;9.70;51.80;;;;;;5045704;28;20045;-84
2021/04/27 01:58:07;;;;;;;12.50;6.90;;;9.70;51.70;;;;;;5022679;28;20081;-84
2021/04/27 02:00:33;;;;;;;8.90;5.60;;;9.70;51.60;;;;;;5035535;28;20024;-84
2021/04/27 02:02:59;;;;;;;12.07;6.73;;;9.70;51.50;;;;;;5035866;28;20424;-85
2021/04/27 02:05:25;;;;;;;12.13;6.47;;;9.70;51.60;;;;;;5037821;28;20032;-84
2021/04/27 02:07:51;;;;;;;10.83;6.20;;;9.50;51.70;;;;;;5032041;28;20038;-84
2021/04/27 02:10:17;;;;;;;10.33;6.37;;;9.50;52.10;;;;;;5051275;28;20039;-84
2021/04/27 02:12:47;;;;;;;13.17;6.53;;;9.40;52.30;;;;;;5036181;28;20020;-85
2021/04/27 02:15:18;;;;;;;8.27;5.87;;;9.30;52.60;;;;;;5035430;28;20033;-84
2021/04/27 02:18:02;;;;;;;10.77;6.57;;;9.20;52.80;;;;;;5035841;28;20032;-85
2021/04/27 02:20:29;;;;;;;11.50;6.07;;;9.20;53.00;;;;;;5035448;28;20036;-85
2021/04/27 02:22:57;;;;;;;12.47;7.40;;;9.10;53.10;;;;;;5028177;28;20029;-84
2021/04/27 02:25:24;;;;;;;13.43;6.00;;;9.00;53.30;;;;;;5034242;28;20037;-84
2021/04/27 02:27:51;;;;;;;11.87;7.10;;;9.00;53.50;;;;;;5029741;28;20125;-85
2021/04/27 02:30:20;;;;;;;10.90;6.90;;;9.00;53.70;;;;;;5035835;28;20431;-84
2021/04/27 02:32:46;;;;;;;9.63;6.50;;;9.00;53.80;;;;;;5036137;28;20043;-84
2021/04/27 02:35:15;;;;;;;9.00;6.23;;;9.00;53.80;;;;;;5034802;28;20449;-85
2021/04/27 02:37:44;;;;;;;14.40;6.80;;;8.90;53.90;;;;;;5029693;28;20132;-84
2021/04/27 02:40:12;;;;;;;10.10;7.33;;;8.80;54.10;;;;;;5036404;28;20025;-84
2021/04/27 02:42:39;;;;;;;11.03;6.77;;;8.70;54.20;;;;;;5044536;28;20037;-85
2021/04/27 02:45:07;;;;;;;9.47;7.17;;;8.70;54.50;;;;;;5026604;28;20025;-84
2021/04/27 02:47:33;;;;;;;12.33;6.90;;;8.70;54.60;;;;;;5034140;28;20548;-85
2021/04/27 02:49:59;;;;;;;11.93;6.93;;;8.70;54.70;;;;;;5052053;28;20461;-85
2021/04/27 02:52:26;;;;;;;12.27;6.97;;;8.60;54.90;;;;;;5035797;28;20029;-85
2021/04/27 02:54:52;;;;;;;10.00;6.43;;;8.50;54.80;;;;;;5034992;28;20081;-85
2021/04/27 02:57:18;;;;;;;12.30;7.53;;;8.50;55.10;;;;;;5052952;28;20123;-85
2021/04/27 02:59:43;;;;;;;9.17;6.67;;;8.50;55.10;;;;;;5033902;28;20033;-85
2021/04/27 03:02:09;;;;;;;11.10;6.37;;;8.40;55.00;;;;;;5035867;28;20040;-85
2021/04/27 03:04:35;;;;;;;14.43;6.43;;;8.40;55.20;;;;;;5034519;28;20078;-85
2021/04/27 03:07:02;;;;;;;10.17;6.53;;;8.40;55.20;;;;;;5022821;28;20042;-85
2021/04/27 03:09:27;;;;;;;10.03;6.50;;;8.30;55.40;;;;;;5037141;28;20056;-85
2021/04/27 03:11:53;;;;;;;10.67;7.07;;;8.30;55.60;;;;;;5027383;28;20029;-85
2021/04/27 03:14:19;;;;;;;9.50;6.60;;;8.40;55.50;;;;;;5020251;28;20066;-85
2021/04/27 03:16:45;;;;;;;13.50;7.10;;;8.30;55.50;;;;;;5036007;28;20031;-85
2021/04/27 03:19:10;;;;;;;11.67;6.47;;;8.30;55.70;;;;;;5034500;28;20088;-85
2021/04/27 03:21:36;;;;;;;9.83;6.77;;;8.30;55.80;;;;;;5035778;28;20036;-85
2021/04/27 03:24:02;;;;;;;10.70;7.03;;;8.30;55.80;;;;;;5032285;28;20052;-85
2021/04/27 03:26:28;;;;;;;10.93;6.47;;;8.30;55.90;;;;;;5036372;28;20125;-85
2021/04/27 03:28:54;;;;;;;11.77;5.83;;;8.20;55.80;;;;;;5026807;28;20093;-85
2021/04/27 03:31:21;;;;;;;12.40;5.73;;;8.10;55.60;;;;;;5033661;28;20064;-85
2021/04/27 03:33:46;;;;;;;8.83;5.67;;;8.10;55.70;;;;;;5031988;28;20438;-84
2021/04/27 03:36:12;;;;;;;10.27;5.40;;;8.20;55.20;;;;;;5029644;28;20033;-86
2021/04/27 03:38:38;;;;;;;8.07;5.70;;;8.10;54.80;;;;;;5026775;28;20028;-86
2021/04/27 03:41:04;;;;;;;10.63;5.87;;;8.10;54.90;;;;;;5032179;28;20037;-86
2021/04/27 03:43:29;;;;;;;7.00;5.10;;;8.20;54.70;;;;;;5028116;28;20033;-85
2021/04/27 03:45:56;;;;;;;9.13;5.77;;;8.20;54.60;;;;;;5035096;28;20032;-86
2021/04/27 03:48:22;;;;;;;9.23;5.40;;;8.20;54.70;;;;;;5033067;28;20042;-85
2021/04/27 03:50:49;;;;;;;11.73;5.40;;;8.10;54.90;;;;;;5028318;28;20025;-86
2021/04/27 03:53:15;;;;;;;11.13;6.23;;;8.20;55.00;;;;;;5052744;28;20029;-86
2021/04/27 03:55:41;;;;;;;9.53;6.40;;;8.10;54.90;;;;;;5036975;28;20083;-86
2021/04/27 03:58:07;;;;;;;10.47;6.33;;;8.10;55.10;;;;;;5035612;28;20047;-86
2021/04/27 04:00:34;;;;;;;10.37;6.30;;;8.00;55.10;;;;;;5037006;28;20128;-86
2021/04/27 04:02:59;;;;;;;10.23;6.37;;;8.00;55.40;;;;;;5034480;28;20079;-85
2021/04/27 04:05:25;;;;;;;12.73;7.17;;;8.00;55.50;;;;;;5034827;28;20037;-86
2021/04/27 04:07:51;;;;;;;10.57;6.57;;;8.00;55.50;;;;;;5035170;28;20084;-86
2021/04/27 04:10:17;;;;;;;9.50;5.67;;;7.90;55.80;;;;;;5033439;28;20029;-85
2021/04/27 04:12:43;;;;;;;14.53;6.70;;;7.90;55.80;;;;;;5034520;28;20032;-86
2021/04/27 04:15:12;;;;;;;9.17;6.13;;;7.90;55.80;;;;;;5034734;28;20198;-86
2021/04/27 04:17:39;;;;;;;11.63;6.47;;;8.00;55.80;;;;;;5034567;28;20167;-86
2021/04/27 04:20:07;;;;;;;11.97;7.63;;;8.00;55.80;;;;;;5034255;28;20399;-86
2021/04/27 04:22:33;;;;;;;9.87;6.70;;;7.90;55.80;;;;;;5034625;28;20481;-86
2021/04/27 04:24:58;;;;;;;16.30;6.00;;;7.90;56.00;;;;;;5034159;28;20040;-86
2021/04/27 04:27:24;;;;;;;8.80;5.87;;;7.90;55.90;;;;;;5034792;28;20036;-86
2021/04/27 04:29:50;;;;;;;8.90;5.67;;;8.00;55.90;;;;;;5034942;28;20045;-86
2021/04/27 04:32:15;;;;;;;13.77;6.30;;;8.00;55.90;;;;;;5035297;28;20032;-86
2021/04/27 04:34:41;;;;;;;10.43;5.90;;;8.00;55.50;;;;;;5021867;28;20029;-86
2021/04/27 04:37:07;;;;;;;11.07;5.43;;;8.10;55.30;;;;;;5032274;28;20025;-84
2021/04/27 04:39:34;;;;;;;15.93;6.00;;;8.10;55.00;;;;;;5052110;28;20029;-84
2021/04/27 04:42:00;;;;;;;9.60;5.73;;;8.10;54.90;;;;;;5047586;28;20082;-86
2021/04/27 04:44:27;;;;;;;12.63;5.63;;;8.10;54.90;;;;;;5026370;28;20028;-86
2021/04/27 04:46:53;;;;;;;9.53;6.30;;;8.00;54.90;;;;;;5037755;28;20124;-86
2021/04/27 04:49:18;;;;;;;13.73;7.27;;;8.00;55.10;;;;;;5038174;28;20115;-86
2021/04/27 04:51:44;;;;;;;12.00;6.33;;;8.00;55.20;;;;;;5039185;28;20025;-86
2021/04/27 04:54:10;;;;;;;9.63;6.00;;;8.00;55.20;;;;;;5038526;28;20056;-86
2021/04/27 04:56:35;;;;;;;10.53;5.90;;;8.00;55.10;;;;;;5055652;28;20044;-86
2021/04/27 04:59:01;;;;;;;12.47;5.83;;;8.00;55.10;;;;;;5038513;28;20036;-85
2021/04/27 05:01:27;;;;;;;11.93;6.13;;;8.00;55.00;;;;;;5031718;28;20428;-87
2021/04/27 05:03:53;;;;;;;9.53;6.03;;;8.00;55.10;;;;;;5035685;28;20124;-87
2021/04/27 05:06:20;;;;;;;12.57;6.87;;;8.00;55.20;;;;;;5054647;28;20086;-87
2021/04/27 05:08:48;;;;;;;9.63;5.80;;;7.90;55.30;;;;;;5031960;28;20049;-87
2021/04/27 05:11:14;;;;;;;11.63;6.77;;;7.90;55.40;;;;;;5038970;28;20031;-87
2021/04/27 05:13:40;;;;;;;11.93;7.00;;;7.80;55.60;;;;;;5029952;28;20021;-87
2021/04/27 05:16:09;;;;;;;12.60;7.87;;;7.90;55.60;;;;;;5026358;28;20112;-87
2021/04/27 05:18:37;;;;;;;14.67;8.13;;;7.90;55.70;;;;;;5036671;28;20056;-86
2021/04/27 05:21:03;;;;;;;14.40;7.93;;;7.90;55.80;;;;;;5036778;28;20021;-86
2021/04/27 05:23:29;;;;;;;12.60;7.80;;;7.90;55.90;;;;;;5035216;28;20029;-86
2021/04/27 05:25:55;;;;;;;10.60;7.20;;;7.90;56.00;;;;;;5034589;28;20388;-85
2021/04/27 05:28:21;;;;;;;11.30;6.20;;;7.90;56.30;;;;;;5034617;28;20025;-85
2021/04/27 05:30:47;;;;;;;11.10;6.80;;;7.90;56.40;;;;;;5036836;28;20032;-85
2021/04/27 05:33:13;;;;;;;12.07;6.30;;;7.90;56.30;;;;;;5034698;28;20025;-85
2021/04/27 05:35:41;;;;;;;11.33;7.17;;;7.90;56.30;;;;;;5035729;28;20143;-84
2021/04/27 05:38:07;;;;;;;13.67;7.77;;;7.90;56.20;;;;;;5053466;28;20117;-85
2021/04/27 05:40:34;;;;;;;20.03;8.80;;;8.00;56.20;;;;;;5049897;28;20098;-85
2021/04/27 05:43:00;;;;;;;15.77;8.43;;;8.00;56.20;;;;;;5032491;28;20059;-84
2021/04/27 05:45:25;;;;;;;19.63;7.30;;;8.00;56.00;;;;;;5033588;28;20056;-85
2021/04/27 05:47:51;;;;;;;11.87;7.50;;;8.10;56.00;;;;;;5035353;28;20043;-85
2021/04/27 05:50:17;;;;;;;15.47;7.10;;;8.10;56.10;;;;;;5053271;28;20159;-85
2021/04/27 05:52:43;;;;;;;12.50;7.30;;;8.10;56.30;;;;;;5035744;28;20033;-85
2021/04/27 05:55:09;;;;;;;10.97;7.00;;;8.10;56.40;;;;;;5035469;28;20064;-85
2021/04/27 05:57:35;;;;;;;13.73;6.60;;;8.10;56.30;;;;;;5029062;28;20423;-85
2021/04/27 06:00:00;;;;;;;17.60;7.37;;;8.10;56.30;;;;;;5034112;28;20029;-85
2021/04/27 06:02:26;;;;;;;13.27;7.30;;;8.20;56.30;;;;;;5035185;28;20032;-85
2021/04/27 06:04:53;;;;;;;17.83;7.70;;;8.20;56.30;;;;;;5035521;28;20035;-85
2021/04/27 06:07:19;;;;;;;12.10;7.97;;;8.20;56.30;;;;;;5032596;28;20477;-85
2021/04/27 06:09:45;;;;;;;18.10;8.20;;;8.20;56.30;;;;;;5035985;28;20115;-85
2021/04/27 06:12:11;;;;;;;11.93;7.97;;;8.30;56.30;;;;;;5034632;28;20025;-85
2021/04/27 06:14:37;;;;;;;17.93;8.13;;;8.30;56.30;;;;;;5035008;28;20448;-85
2021/04/27 06:17:03;;;;;;;12.13;8.43;;;8.30;56.40;;;;;;5032097;28;20550;-85
2021/04/27 06:19:29;;;;;;;16.30;8.73;;;8.30;56.50;;;;;;5029821;28;20025;-85
2021/04/27 06:21:54;;;;;;;14.07;8.60;;;8.30;56.60;;;;;;5034867;28;20039;-84
2021/04/27 06:24:20;;;;;;;19.40;9.50;;;8.40;56.70;;;;;;5036050;28;20308;-85
2021/04/27 06:26:46;;;;;;;14.50;8.90;;;8.50;56.70;;;;;;5035000;28;20053;-85
2021/04/27 06:29:12;;;;;;;14.13;8.43;;;8.60;56.70;;;;;;5033274;28;20052;-85
2021/04/27 06:31:38;;;;;;;16.63;8.90;;;8.60;56.70;;;;;;5036008;28;20561;-85
2021/04/27 06:34:07;;;;;;;12.50;8.77;;;8.70;56.80;;;;;;5034247;28;20268;-86
2021/04/27 06:36:34;;;;;;;16.30;9.20;;;8.80;56.60;;;;;;5030739;28;20119;-85
2021/04/27 06:39:02;;;;;;;18.57;9.80;;;8.80;56.40;;;;;;5015123;28;20037;-85
2021/04/27 06:41:31;;;;;;;13.20;8.30;;;8.80;56.30;;;;;;5026252;28;20032;-85
2021/04/27 06:43:58;;;;;;;14.03;8.97;;;8.90;56.20;;;;;;5049934;28;20817;-86
2021/04/27 06:46:24;;;;;;;12.77;9.30;;;8.90;56.00;;;;;;5035955;28;20033;-85
2021/04/27 06:48:50;;;;;;;20.63;9.10;;;9.00;56.00;;;;;;5034912;28;20431;-85
2021/04/27 06:51:17;;;;;;;14.33;9.83;;;9.10;56.40;;;;;;5035854;28;20025;-85
2021/04/27 06:53:45;;;;;;;20.43;9.70;;;9.10;55.70;;;;;;5054897;28;20028;-85
2021/04/27 06:56:11;;;;;;;16.60;9.03;;;9.20;55.60;;;;;;5036833;28;20057;-86
2021/04/27 06:58:37;;;;;;;18.70;9.03;;;9.20;55.40;;;;;;5036299;28;20036;-85
2021/04/27 07:01:04;;;;;;;15.43;9.27;;;9.30;55.40;;;;;;5036353;28;20475;-85
2021/04/27 07:03:31;;;;;;;14.47;8.23;;;9.30;55.30;;;;;;5036165;28;20025;-85
2021/04/27 07:05:57;;;;;;;15.07;8.00;;;9.40;55.30;;;;;;5017116;28;20021;-85
2021/04/27 07:08:23;;;;;;;11.77;7.47;;;9.50;55.30;;;;;;5012545;28;20108;-86
2021/04/27 07:10:51;;;;;;;12.87;7.43;;;9.60;55.30;;;;;;5026852;28;20025;-86
2021/04/27 07:13:17;;;;;;;15.70;7.70;;;9.70;55.10;;;;;;5032142;28;20025;-86
2021/04/27 07:15:43;;;;;;;12.93;8.03;;;9.90;55.00;;;;;;5030079;28;20033;-86
2021/04/27 07:18:09;;;;;;;17.13;8.57;;;10.00;55.00;;;;;;5014344;28;20026;-87
2021/04/27 07:20:35;;;;;;;10.03;8.30;;;10.20;55.00;;;;;;5015979;28;20033;-87
2021/04/27 07:23:01;;;;;;;12.23;7.73;;;10.40;54.90;;;;;;5031861;28;20028;-87
2021/04/27 07:25:27;;;;;;;12.63;8.00;;;10.50;54.80;;;;;;5034079;28;20472;-87
2021/04/27 07:27:53;;;;;;;10.00;7.87;;;10.70;54.70;;;;;;5033710;28;20101;-88
2021/04/27 07:30:21;;;;;;;14.13;7.70;;;10.90;54.50;;;;;;5032627;28;20064;-88
2021/04/27 07:32:47;;;;;;;11.60;7.30;;;11.20;54.30;;;;;;5034010;28;20029;-88
2021/04/27 07:35:36;;;;;;;11.87;7.20;;;11.40;53.90;;;;;;5033692;28;20116;-88
2021/04/27 07:38:03;;;;;;;12.43;7.03;;;11.60;53.60;;;;;;5031238;28;20481;-87
2021/04/27 07:40:30;;;;;;;12.47;7.13;;;11.80;53.10;;;;;;5029276;28;20030;-88
2021/04/27 07:42:56;;;;;;;12.27;7.30;;;11.90;52.60;;;;;;5029872;28;20022;-88
2021/04/27 07:45:23;;;;;;;9.37;7.10;;;12.00;52.30;;;;;;5013350;28;20022;-88
2021/04/27 07:47:52;;;;;;;12.03;6.57;;;12.10;51.90;;;;;;5033015;28;20036;-88
2021/04/27 07:50:18;;;;;;;11.40;6.87;;;12.20;51.70;;;;;;5032461;28;20099;-88
2021/04/27 07:52:44;;;;;;;11.07;6.43;;;12.40;51.10;;;;;;5032835;28;20546;-88
2021/04/27 07:55:10;;;;;;;13.10;7.17;;;12.50;50.70;;;;;;5032199;28;20064;-88
2021/04/27 07:57:36;;;;;;;12.00;7.47;;;12.70;50.40;;;;;;5027610;28;20033;-88
2021/04/27 08:00:04;;;;;;;17.77;7.33;;;12.80;49.90;;;;;;5030197;28;20048;-88
2021/04/27 08:02:32;;;;;;;14.27;7.40;;;12.90;49.70;;;;;;5026185;28;20422;-87
2021/04/27 08:04:57;;;;;;;15.83;7.37;;;13.10;49.20;;;;;;5028810;28;20434;-89
2021/04/27 08:07:23;;;;;;;10.63;6.77;;;13.40;48.70;;;;;;5030468;28;20041;-88
2021/04/27 08:09:51;;;;;;;12.10;7.83;;;13.50;48.00;;;;;;5027797;28;20046;-89
2021/04/27 08:12:16;;;;;;;16.13;7.80;;;13.50;47.40;;;;;;5030491;28;20089;-90
2021/04/27 08:14:42;;;;;;;13.83;8.07;;;13.50;47.20;;;;;;5033013;28;20132;-89
2021/04/27 08:17:08;;;;;;;10.47;7.20;;;13.60;46.90;;;;;;5032793;28;20095;-88
2021/04/27 08:19:35;;;;;;;15.50;7.83;;;13.70;46.70;;;;;;5027768;28;20025;-89
2021/04/27 08:22:01;;;;;;;15.90;7.77;;;13.90;46.70;;;;;;5032372;28;20021;-89
2021/04/27 08:24:27;;;;;;;16.33;7.37;;;14.20;46.60;;;;;;5034460;28;20022;-89
2021/04/27 08:26:53;;;;;;;12.50;7.67;;;14.50;46.50;;;;;;5035311;28;20036;-89
2021/04/27 08:29:19;;;;;;;11.13;6.87;;;14.70;46.10;;;;;;5035369;28;20489;-89
2021/04/27 08:31:44;;;;;;;9.60;6.77;;;14.80;45.80;;;;;;5036301;28;20108;-89
2021/04/27 08:34:10;;;;;;;9.83;6.43;;;15.00;46.00;;;;;;5033571;28;20104;-86
2021/04/27 08:36:36;;;;;;;11.27;5.73;;;15.30;46.00;;;;;;5035634;28;20025;-85
2021/04/27 08:39:02;;;;;;;8.37;5.63;;;15.70;45.80;;;;;;5036124;28;20033;-85
2021/04/27 08:41:29;;;;;;;7.47;5.60;;;15.90;45.20;;;;;;5029714;28;20121;-85
2021/04/27 08:43:54;;;;;;;10.17;6.60;;;16.00;44.50;;;;;;5035056;28;20448;-85
2021/04/27 08:46:20;;;;;;;9.47;5.53;;;16.00;44.40;;;;;;5030518;28;20032;-86
2021/04/27 08:48:46;;;;;;;12.50;6.30;;;16.30;44.40;;;;;;5035341;28;20052;-86
2021/04/27 08:51:13;;;;;;;9.77;5.70;;;16.40;44.00;;;;;;5028196;28;20021;-86
2021/04/27 08:53:39;;;;;;;8.75;5.68;;;16.50;43.40;;;;;;5034924;28;20377;-85
2021/04/27 08:56:05;;;;;;;12.80;5.80;;;16.60;43.00;;;;;;5035241;28;20029;-85
2021/04/27 08:58:31;;;;;;;8.73;5.10;;;16.70;42.60;;;;;;5037536;28;20056;-85
2021/04/27 09:00:57;;;;;;;10.75;5.82;;;16.80;42.20;;;;;;5026784;28;20021;-86
2021/04/27 09:03:23;;;;;;;13.00;6.10;;;16.90;42.20;;;;;;5026336;28;20021;-85
2021/04/27 09:05:49;;;;;;;11.07;6.15;;;17.10;42.20;;;;;;5029905;28;20060;-85
2021/04/27 09:08:15;;;;;;;11.45;6.45;;;17.20;42.20;;;;;;5037754;28;20076;-85
2021/04/27 09:10:45;;;;;;;9.88;6.00;;;17.30;42.20;;;;;;5036493;28;20027;-85
2021/04/27 09:13:17;;;;;;;11.20;6.15;;;17.50;42.00;;;;;;5032255;28;20029;-86
2021/04/27 09:15:50;;;;;;;12.45;6.65;;;17.60;42.00;;;;;;5032562;28;20037;-85
2021/04/27 09:18:27;;;;;;;13.82;7.78;;;17.60;42.20;;;;;;5027759;28;20033;-85
2021/04/27 09:21:13;;;;;;;13.32;5.90;;;17.60;42.20;;;;;;5024727;28;20477;-86
2021/04/27 09:23:44;;;;;;;12.40;6.28;;;17.90;41.80;;;;;;5033451;28;20047;-84
2021/04/27 09:26:10;;;;;;;9.77;5.38;;;18.00;41.40;;;;;;5032585;28;20477;-86
2021/04/27 09:28:39;;;;;;;7.35;4.72;;;18.00;41.20;;;;;;5028864;28;20033;-86
2021/04/27 09:31:23;;;;;;;11.52;5.18;;;18.20;41.10;;;;;;5031616;28;20021;-86
2021/04/27 09:33:50;;;;;;;7.32;5.13;;;18.30;40.70;;;;;;5034339;28;20055;-86
2021/04/27 09:36:21;;;;;;;9.23;5.50;;;18.40;40.60;;;;;;5028230;28;20087;-86
2021/04/27 09:38:50;;;;;;;7.85;5.55;;;18.50;40.40;;;;;;5027167;28;20463;-86
2021/04/27 09:41:16;;;;;;;9.55;5.07;;;18.60;40.30;;;;;;5028459;28;20030;-86
2021/04/27 09:43:47;;;;;;;13.20;6.28;;;18.60;40.20;;;;;;5023658;28;20052;-85
2021/04/27 09:46:16;;;;;;;8.15;5.47;;;18.70;39.70;;;;;;5051824;28;20547;-86
2021/04/27 09:48:54;;;;;;;8.60;5.40;;;18.70;39.60;;;;;;5047962;28;20025;-85
2021/04/27 09:51:28;;;;;;;13.32;6.00;;;18.80;39.60;;;;;;5024085;28;20026;-86
2021/04/27 09:53:58;;;;;;;12.38;5.38;;;18.90;39.40;;;;;;5023970;28;20033;-86
2021/04/27 09:56:44;;;;;;;11.63;5.40;;;19.00;39.20;;;;;;5025572;28;20025;-86
2021/04/27 09:59:14;;;;;;;7.90;5.40;;;19.10;39.00;;;;;;5025006;28;20393;-86
2021/04/27 10:01:45;;;;;;;15.32;6.32;;;19.20;38.80;;;;;;5024534;28;20080;-86
2021/04/27 10:04:11;;;;;;;10.65;6.60;;;19.30;38.70;;;;;;5024487;28;20083;-84
2021/04/27 10:06:41;;;;;;;10.75;6.03;;;19.30;38.60;;;;;;5029334;28;20053;-84
2021/04/27 10:09:07;;;;;;;12.70;6.38;;;19.40;38.70;;;;;;5030934;28;20025;-84
2021/04/27 10:11:33;;;;;;;11.25;6.53;;;19.40;39.10;;;;;;5033110;28;20028;-83
2021/04/27 10:13:59;;;;;;;8.48;6.07;;;19.50;38.60;;;;;;5034044;28;20032;-84
2021/04/27 10:16:25;;;;;;;7.65;6.25;;;19.50;38.60;;;;;;5023384;28;20044;-84
2021/04/27 10:18:55;;;;;;;9.13;6.95;;;19.60;38.60;;;;;;5031019;28;20029;-84
2021/04/27 10:21:21;;;;;;;10.95;6.40;;;19.60;38.40;;;;;;5033291;28;20033;-84
2021/04/27 10:23:52;;;;;;;12.30;6.97;;;19.60;38.20;;;;;;5032238;28;20045;-84
2021/04/27 10:26:23;;;;;;;10.32;6.85;;;19.70;38.40;;;;;;5033170;28;20030;-84
2021/04/27 10:29:08;;;;;;;11.00;6.88;;;19.80;38.60;;;;;;5033243;28;20092;-84
2021/04/27 10:31:39;;;;;;;10.57;5.63;;;19.90;38.40;;;;;;5033514;28;20057;-84
2021/04/27 10:34:10;;;;;;;9.18;6.72;;;19.90;38.30;;;;;;5026147;28;20040;-83
2021/04/27 10:36:46;;;;;;;12.10;6.22;;;20.00;38.20;;;;;;5024502;28;20053;-83
2021/04/27 10:39:47;;;;;;;10.45;5.80;;;20.10;37.60;;;;;;5016117;28;20033;-83
2021/04/27 10:42:43;;;;;;;12.30;7.05;;;20.20;37.50;;;;;;5024030;28;20080;-84
2021/04/27 10:45:11;;;;;;;9.05;5.50;;;20.30;37.70;;;;;;4985645;28;20133;-83
2021/04/27 10:47:45;;;;;;;12.00;6.43;;;20.30;37.80;;;;;;5032834;28;20033;-83
2021/04/27 10:50:31;;;;;;;9.07;5.82;;;20.40;37.20;;;;;;5034839;28;20045;-82
2021/04/27 10:53:30;;;;;;;6.70;5.43;;;20.50;37.30;;;;;;5030620;28;20394;-83
2021/04/27 10:55:57;;;;;;;10.05;5.15;;;20.50;36.10;;;;;;5026613;28;20400;-82
2021/04/27 10:58:51;;;;;;;9.57;4.47;;;20.50;36.40;;;;;;5026672;28;20046;-82
2021/04/27 11:01:29;;;;;;;7.85;4.57;;;20.60;36.20;;;;;;5013240;28;20034;-81
2021/04/27 11:03:57;;;;;;;8.85;4.50;;;20.70;36.00;;;;;;5026550;28;20420;-81
2021/04/27 11:06:30;;;;;;;6.03;4.20;;;20.70;35.90;;;;;;5033513;28;20424;-82
2021/04/27 11:09:14;;;;;;;9.82;5.53;;;20.80;35.70;;;;;;5024275;28;20168;-82
2021/04/27 11:11:41;;;;;;;7.10;4.40;;;20.90;35.20;;;;;;5023161;28;20022;-83
2021/04/27 11:14:30;;;;;;;7.80;4.50;;;20.90;35.30;;;;;;5033000;28;20032;-82
2021/04/27 11:17:15;;;;;;;7.13;4.80;;;21.00;34.90;;;;;;5029376;28;20025;-83
2021/04/27 11:19:44;;;;;;;7.00;4.45;;;21.00;34.80;;;;;;5052198;28;20504;-82
2021/04/27 11:22:29;;;;;;;6.97;4.72;;;21.00;34.60;;;;;;5035533;28;20033;-82
2021/04/27 11:24:57;;;;;;;8.30;4.40;;;21.20;34.50;;;;;;5034699;28;20078;-82
2021/04/27 11:27:37;;;;;;;6.95;4.28;;;21.20;34.30;;;;;;5032675;28;20053;-82
2021/04/27 11:30:09;;;;;;;10.43;3.92;;;21.20;34.50;;;;;;5030083;28;20017;-82
2021/04/27 11:32:44;;;;;;;6.22;4.00;;;21.30;34.80;;;;;;5020830;28;20036;-82
2021/04/27 11:35:18;;;;;;;9.90;4.30;;;21.30;34.60;;;;;;5049676;28;20036;-83
2021/04/27 11:37:57;;;;;;;6.47;4.25;;;21.40;34.50;;;;;;5035612;28;20125;-83
2021/04/27 11:40:36;;;;;;;9.23;4.00;;;21.50;34.40;;;;;;5035395;28;20384;-83
2021/04/27 11:43:09;;;;;;;8.27;4.15;;;21.60;34.20;;;;;;5035091;28;20515;-83
2021/04/27 11:45:44;;;;;;;10.15;3.92;;;21.60;34.10;;;;;;5044539;28;20028;-84
2021/04/27 11:48:13;;;;;;;11.52;4.10;;;21.60;33.70;;;;;;5031960;28;20052;-83
2021/04/27 11:50:39;;;;;;;7.50;4.10;;;21.50;33.50;;;;;;5032353;28;20553;-83
2021/04/27 11:53:15;;;;;;;12.90;5.70;;;21.50;33.70;;;;;;5034576;28;20103;-83
2021/04/27 11:55:45;;;;;;;7.03;3.67;;;21.50;33.30;;;;;;5034400;28;20112;-83
2021/04/27 11:58:30;;;;;;;6.97;3.92;;;21.60;33.40;;;;;;5033894;28;20577;-83
2021/04/27 12:01:01;;;;;;;5.05;3.45;;;21.60;33.30;;;;;;5034055;28;20033;-83
2021/04/27 12:03:31;;;;;;;7.30;4.30;;;21.60;33.30;;;;;;5032110;28;20545;-83
2021/04/27 12:06:24;;;;;;;8.05;4.05;;;21.60;33.20;;;;;;5046360;28;20021;-83
2021/04/27 12:11:44;;;;;;;6.70;3.92;;;21.70;33.00;;;;;;5052732;28;19909;-84
2021/04/27 12:14:15;;;;;;;4.68;3.78;;;21.80;33.20;;;;;;5033394;28;20033;-87
2021/04/27 12:16:46;;;;;;;11.43;4.88;;;21.80;32.80;;;;;;5049434;28;20090;-85
2021/04/27 12:19:17;;;;;;;9.45;4.63;;;21.90;32.50;;;;;;5043467;28;20399;-86
2021/04/27 12:21:48;;;;;;;6.55;4.25;;;22.00;32.70;;;;;;5033726;28;20031;-86
2021/04/27 12:24:16;;;;;;;8.93;3.58;;;21.90;32.50;;;;;;5027870;28;20029;-85
2021/04/27 12:26:52;;;;;;;5.85;3.60;;;22.00;32.70;;;;;;5034253;28;20039;-86
2021/04/27 12:29:28;;;;;;;6.22;4.13;;;22.00;32.30;;;;;;5025776;28;20534;-85
2021/04/27 12:31:55;;;;;;;4.18;3.40;;;22.10;32.20;;;;;;5030303;28;20032;-85
2021/04/27 12:34:21;;;;;;;7.50;3.33;;;22.10;32.40;;;;;;5034986;28;20041;-85
2021/04/27 12:36:51;;;;;;;4.38;3.50;;;22.20;32.20;;;;;;5051598;28;20053;-84
2021/04/27 12:39:20;;;;;;;5.70;3.45;;;22.20;31.90;;;;;;5038760;28;20027;-85
2021/04/27 12:41:46;;;;;;;5.45;3.90;;;22.20;31.70;;;;;;5046579;28;20025;-84
2021/04/27 12:44:30;;;;;;;9.02;3.70;;;22.20;32.10;;;;;;5029285;28;20028;-84
2021/04/27 12:46:58;;;;;;;6.82;3.78;;;22.20;32.30;;;;;;5035168;28;20395;-84
2021/04/27 12:49:29;;;;;;;7.50;3.22;;;22.20;32.30;;;;;;5052563;28;20618;-84
2021/04/27 12:52:08;;;;;;;6.45;3.47;;;22.30;32.30;;;;;;5031753;28;20074;-85
2021/04/27 12:54:35;;;;;;;5.10;3.72;;;22.40;32.00;;;;;;5035610;28;20036;-85
2021/04/27 12:57:23;;;;;;;10.23;3.63;;;22.30;31.60;;;;;;5030780;28;20025;-84